Marlborough, Connecticut
Current Conditions -  °F | °C
As of 3:53 PM on Friday 24 Oct 2014 (Local Time) from KHFD Reporting Station
Overcast Overcast  
Wind Chill: 54°   Ceiling: 3300
Heat Index: 54°   Visibility: 10mi
Dew Point: 42°   Wind: 6mph
Humidity: 64%   Direction: NA
Pressure: 29.75"   Gusts: 18mph
Location:  41.63°N, 72.46°W
Report Text: KHFD 241953Z VRB05G16KT 10SM OVC033 12/06 A2975 RMK AO2 SLP075 T01220056
Loading
Personal Weather Stations






























Interactive Weather Map
Tropical Storm Tracking
New forecast layout! Learn more

10-Day Weather Forecast

Advertisements
Track Severe Weather on mobile